Time;durP1;ratioP1;P1;durP2;ratioP2;P2;SDS_P1;SDS_P2;PMS_P1;PMS_P2;Temp;Humidity;BMP_temperature;BMP_pressure;BME280_temperature;BME280_humidity;BME280_pressure;Samples;Min_cycle;Max_cycle;Signal;HPM_P1;HPM_P2
2021/01/27 00:02:20;;;;;;;5.90;2.80;;;12.30;53.80;;;;;;4988434;28;20461;-69
2021/01/27 00:04:46;;;;;;;7.75;2.80;;;12.30;54.50;;;;;;4987881;28;20027;-69
2021/01/27 00:07:12;;;;;;;8.10;2.95;;;12.40;54.40;;;;;;4987036;28;20034;-69
2021/01/27 00:09:39;;;;;;;3.90;2.45;;;12.30;54.00;;;;;;4986537;28;20468;-68
2021/01/27 00:12:06;;;;;;;3.72;2.30;;;12.20;55.00;;;;;;4990346;28;20045;-69
2021/01/27 00:14:32;;;;;;;4.95;2.38;;;12.20;55.20;;;;;;4988811;28;20055;-70
2021/01/27 00:16:58;;;;;;;4.70;2.28;;;12.20;55.10;;;;;;4986159;28;20522;-69
2021/01/27 00:19:25;;;;;;;4.53;3.05;;;12.10;55.80;;;;;;4985335;28;20037;-69
2021/01/27 00:21:51;;;;;;;3.50;1.95;;;12.20;55.10;;;;;;4992789;28;20034;-69
2021/01/27 00:24:17;;;;;;;6.32;1.98;;;11.90;55.10;;;;;;4989642;28;20030;-69
2021/01/27 00:26:44;;;;;;;6.70;2.42;;;11.90;55.70;;;;;;4985701;28;20456;-69
2021/01/27 00:29:10;;;;;;;4.53;2.35;;;12.10;55.80;;;;;;4993293;28;22002;-69
2021/01/27 00:31:37;;;;;;;5.13;1.90;;;11.90;56.20;;;;;;4993319;28;20042;-69
2021/01/27 00:34:03;;;;;;;3.95;2.17;;;11.90;55.80;;;;;;4994102;28;20034;-69
2021/01/27 00:36:29;;;;;;;6.25;2.20;;;12.00;56.10;;;;;;4991481;28;20030;-69
2021/01/27 00:38:56;;;;;;;5.82;2.15;;;11.90;57.20;;;;;;4988256;28;20392;-68
2021/01/27 00:41:22;;;;;;;3.40;1.70;;;12.10;56.60;;;;;;4989490;28;20089;-69
2021/01/27 00:43:49;;;;;;;3.88;2.17;;;11.90;56.30;;;;;;4989377;28;20046;-69
2021/01/27 00:46:15;;;;;;;2.58;2.20;;;12.10;56.60;;;;;;4990441;28;20014;-69
2021/01/27 00:48:41;;;;;;;3.80;2.05;;;12.00;56.20;;;;;;4987435;28;20050;-69
2021/01/27 00:51:08;;;;;;;3.85;1.95;;;11.90;56.20;;;;;;4987653;28;20030;-68
2021/01/27 00:53:34;;;;;;;5.22;2.13;;;11.90;57.40;;;;;;4990752;28;20432;-69
2021/01/27 00:56:00;;;;;;;5.03;2.00;;;11.90;57.70;;;;;;4989908;28;20030;-70
2021/01/27 00:58:27;;;;;;;5.13;2.10;;;12.00;57.10;;;;;;4994642;28;20597;-68
2021/01/27 01:00:53;;;;;;;3.33;2.28;;;11.70;57.80;;;;;;4993787;28;20102;-69
2021/01/27 01:03:20;;;;;;;3.08;1.92;;;11.70;57.80;;;;;;4992640;28;20040;-69
2021/01/27 01:05:47;;;;;;;6.60;2.10;;;11.70;57.60;;;;;;4992418;28;20045;-68
2021/01/27 01:08:16;;;;;;;3.65;3.03;;;11.90;57.30;;;;;;4986056;28;20057;-69
2021/01/27 01:10:46;;;;;;;6.93;3.95;;;11.80;57.10;;;;;;4990027;28;20026;-70
2021/01/27 01:13:19;;;;;;;5.18;2.42;;;11.80;57.40;;;;;;4986462;28;20472;-68
2021/01/27 01:15:45;;;;;;;5.80;2.15;;;11.80;57.30;;;;;;4995016;28;20064;-69
2021/01/27 01:18:12;;;;;;;3.45;3.03;;;11.70;57.90;;;;;;4993142;28;20099;-69
2021/01/27 01:20:40;;;;;;;3.70;2.40;;;11.60;58.00;;;;;;4987156;28;20030;-69
2021/01/27 01:23:06;;;;;;;5.05;2.45;;;11.50;58.10;;;;;;4993783;28;20026;-69
2021/01/27 01:25:34;;;;;;;5.18;2.17;;;11.50;58.20;;;;;;4990583;28;20318;-69
2021/01/27 01:28:03;;;;;;;5.65;2.38;;;11.50;58.30;;;;;;4980427;28;20022;-69
2021/01/27 01:30:35;;;;;;;5.97;2.33;;;11.20;58.00;;;;;;4990101;28;20453;-69
2021/01/27 01:33:12;;;;;;;4.07;2.60;;;11.30;58.70;;;;;;4994943;28;20037;-70
2021/01/27 01:35:40;;;;;;;8.23;3.63;;;11.30;57.90;;;;;;4996859;28;20030;-69
2021/01/27 01:38:10;;;;;;;3.78;2.40;;;11.20;58.60;;;;;;4988176;28;20449;-69
2021/01/27 01:40:40;;;;;;;4.63;2.58;;;11.10;58.90;;;;;;4991381;28;20030;-70
2021/01/27 01:43:25;;;;;;;5.65;3.60;;;11.10;58.80;;;;;;4986848;28;20029;-69
2021/01/27 01:45:53;;;;;;;4.57;2.53;;;11.10;59.00;;;;;;4986599;28;20109;-69
2021/01/27 01:48:37;;;;;;;10.00;3.85;;;11.00;59.30;;;;;;4982912;28;20113;-69
2021/01/27 01:51:15;;;;;;;4.57;2.63;;;10.80;59.40;;;;;;4991011;28;20022;-69
2021/01/27 01:53:42;;;;;;;5.03;2.80;;;10.80;60.40;;;;;;4988991;28;20023;-70
2021/01/27 01:56:13;;;;;;;11.52;4.55;;;10.80;60.80;;;;;;4992173;28;20026;-69
2021/01/27 01:58:40;;;;;;;4.00;2.20;;;10.60;61.50;;;;;;4990293;28;20041;-69
2021/01/27 02:01:08;;;;;;;5.38;3.05;;;10.70;61.40;;;;;;4983162;28;20033;-69
2021/01/27 02:03:37;;;;;;;6.47;3.22;;;10.40;61.10;;;;;;4987088;28;20030;-69
2021/01/27 02:06:07;;;;;;;5.95;2.95;;;10.30;61.10;;;;;;4994281;28;20025;-69
2021/01/27 02:08:36;;;;;;;5.45;2.42;;;10.50;62.20;;;;;;4990527;28;20586;-68
2021/01/27 02:11:02;;;;;;;3.63;2.25;;;10.50;62.30;;;;;;4992643;28;20026;-68
2021/01/27 02:13:50;;;;;;;5.35;2.22;;;10.30;62.90;;;;;;4991957;28;20041;-69
2021/01/27 02:16:22;;;;;;;9.10;3.17;;;10.20;62.20;;;;;;4991746;28;20022;-68
2021/01/27 02:19:12;;;;;;;8.80;2.33;;;10.30;63.10;;;;;;4994075;28;20026;-68
2021/01/27 02:21:55;;;;;;;4.82;3.13;;;10.10;63.20;;;;;;4988023;28;20030;-69
2021/01/27 02:24:24;;;;;;;8.75;3.55;;;10.10;62.50;;;;;;4993982;28;20081;-68
2021/01/27 02:27:10;;;;;;;8.88;3.80;;;10.20;63.90;;;;;;4993991;28;20046;-69
2021/01/27 02:29:46;;;;;;;4.40;2.67;;;10.10;64.30;;;;;;4994306;28;20036;-71
2021/01/27 02:32:31;;;;;;;4.25;2.90;;;10.30;63.90;;;;;;4992936;28;20421;-69
2021/01/27 02:35:19;;;;;;;6.95;3.15;;;10.20;63.90;;;;;;4989232;28;20066;-69
2021/01/27 02:38:24;;;;;;;7.07;3.20;;;10.20;62.40;;;;;;4989949;28;20026;-69
2021/01/27 02:41:06;;;;;;;2.75;2.55;;;10.20;63.40;;;;;;4984271;28;20050;-69
2021/01/27 02:43:44;;;;;;;4.38;3.20;;;10.10;62.90;;;;;;4989997;28;20026;-69
2021/01/27 02:46:10;;;;;;;5.03;3.30;;;9.90;64.20;;;;;;4988349;28;20408;-69
2021/01/27 02:49:03;;;;;;;5.43;2.88;;;9.90;64.50;;;;;;4989192;28;20018;-69
2021/01/27 02:51:29;;;;;;;4.55;2.83;;;9.80;63.70;;;;;;4987872;28;20397;-69
2021/01/27 02:54:19;;;;;;;5.80;3.08;;;9.80;65.10;;;;;;4990075;28;20355;-71
2021/01/27 02:57:34;;;;;;;3.25;2.95;;;9.70;64.40;;;;;;4988765;28;20101;-69
2021/01/27 03:00:11;;;;;;;4.75;3.45;;;9.90;64.20;;;;;;4979349;28;20121;-69
2021/01/27 03:02:44;;;;;;;4.50;2.97;;;9.80;64.50;;;;;;4982036;28;20125;-69
2021/01/27 03:05:14;;;;;;;5.10;3.42;;;9.70;65.40;;;;;;4984531;28;20058;-69
2021/01/27 03:07:43;;;;;;;8.23;3.33;;;9.90;64.80;;;;;;4986487;28;20041;-69
2021/01/27 03:10:20;;;;;;;4.03;2.42;;;9.80;64.10;;;;;;4985972;28;20041;-70
2021/01/27 03:12:48;;;;;;;6.22;3.78;;;9.90;65.40;;;;;;4985147;28;20034;-71
2021/01/27 03:15:15;;;;;;;7.00;3.55;;;9.80;65.50;;;;;;4993381;28;20032;-68
2021/01/27 03:17:43;;;;;;;6.70;3.33;;;9.70;65.50;;;;;;4992906;28;20030;-71
2021/01/27 03:20:18;;;;;;;4.47;2.90;;;9.80;65.50;;;;;;4994730;28;20494;-70
2021/01/27 03:22:52;;;;;;;5.18;3.30;;;9.70;65.70;;;;;;4993662;28;20038;-71
2021/01/27 03:25:29;;;;;;;2.67;2.58;;;9.80;65.20;;;;;;4994234;28;20042;-74
2021/01/27 03:28:20;;;;;;;3.45;2.50;;;9.80;65.30;;;;;;4990005;28;20456;-71
2021/01/27 03:30:47;;;;;;;3.83;2.42;;;9.70;65.80;;;;;;4993783;28;20058;-73
2021/01/27 03:33:20;;;;;;;3.88;2.22;;;9.90;65.00;;;;;;4994047;28;20037;-73
2021/01/27 03:35:53;;;;;;;2.00;1.80;;;9.80;64.90;;;;;;4991968;28;20026;-73
2021/01/27 03:38:49;;;;;;;3.45;2.10;;;9.90;64.80;;;;;;4995528;28;20023;-71
2021/01/27 03:41:31;;;;;;;2.53;2.33;;;9.70;64.90;;;;;;4993172;28;20048;-71
2021/01/27 03:44:14;;;;;;;3.23;2.87;;;9.70;65.40;;;;;;4993974;28;20026;-69
2021/01/27 03:47:00;;;;;;;2.55;2.30;;;9.80;66.10;;;;;;4989848;28;20026;-69
2021/01/27 03:49:56;;;;;;;5.57;3.33;;;9.70;65.30;;;;;;4995477;28;20037;-69
2021/01/27 03:52:32;;;;;;;2.65;2.45;;;9.70;65.20;;;;;;4996401;28;20057;-69
2021/01/27 03:55:05;;;;;;;2.53;2.33;;;9.80;65.60;;;;;;4996316;28;20026;-69
2021/01/27 03:57:37;;;;;;;2.10;2.00;;;9.70;65.50;;;;;;4992295;28;20040;-69
2021/01/27 04:00:10;;;;;;;2.53;2.30;;;9.70;65.80;;;;;;4994487;28;20029;-72
2021/01/27 04:02:37;;;;;;;2.20;1.98;;;9.80;66.40;;;;;;4995025;28;20333;-70
2021/01/27 04:05:03;;;;;;;3.67;2.28;;;9.70;65.70;;;;;;4991702;28;20061;-69
2021/01/27 04:07:30;;;;;;;3.38;2.55;;;9.70;66.30;;;;;;4988439;28;20027;-69
2021/01/27 04:09:56;;;;;;;3.97;2.47;;;9.70;65.70;;;;;;4997257;28;20025;-70
2021/01/27 04:12:22;;;;;;;3.63;3.28;;;9.80;66.90;;;;;;5001341;28;20045;-70
2021/01/27 04:14:49;;;;;;;5.13;2.60;;;9.80;66.30;;;;;;4996782;28;20091;-69
2021/01/27 04:17:31;;;;;;;2.88;2.50;;;9.80;67.10;;;;;;4997234;28;20053;-70
2021/01/27 04:19:58;;;;;;;2.83;2.63;;;9.80;66.80;;;;;;4996581;28;20038;-69
2021/01/27 04:22:25;;;;;;;3.10;2.38;;;9.70;67.00;;;;;;4981262;28;20038;-70
2021/01/27 04:24:51;;;;;;;2.58;2.35;;;9.90;67.00;;;;;;4996431;28;20018;-70
2021/01/27 04:27:18;;;;;;;2.28;2.08;;;9.80;67.00;;;;;;4996771;28;20034;-69
2021/01/27 04:29:45;;;;;;;2.83;2.45;;;9.70;67.90;;;;;;4997099;28;20030;-71
2021/01/27 04:32:11;;;;;;;3.90;2.55;;;9.80;67.80;;;;;;4998546;28;20034;-70
2021/01/27 04:34:38;;;;;;;4.00;2.30;;;9.60;68.00;;;;;;4997828;28;20174;-71
2021/01/27 04:37:05;;;;;;;5.22;2.65;;;9.60;68.80;;;;;;4996528;28;20034;-70
2021/01/27 04:39:31;;;;;;;2.60;2.40;;;9.60;68.30;;;;;;4997251;28;20026;-71
2021/01/27 04:41:58;;;;;;;2.90;2.70;;;9.70;68.20;;;;;;4996845;28;20452;-70
2021/01/27 04:44:25;;;;;;;3.53;2.33;;;9.60;69.30;;;;;;4995406;28;20030;-70
2021/01/27 04:47:06;;;;;;;5.15;2.58;;;9.70;69.00;;;;;;4996523;28;20037;-70
2021/01/27 04:49:40;;;;;;;2.47;2.13;;;9.50;69.10;;;;;;4990498;28;20023;-69
2021/01/27 04:52:19;;;;;;;3.30;2.63;;;9.60;68.80;;;;;;4993753;28;20439;-70
2021/01/27 04:55:17;;;;;;;5.40;2.35;;;9.70;69.10;;;;;;4987616;28;20053;-70
2021/01/27 04:57:58;;;;;;;3.50;2.28;;;9.60;70.30;;;;;;4981867;28;20026;-70
2021/01/27 05:00:44;;;;;;;2.70;2.33;;;9.50;69.20;;;;;;4993509;28;20453;-71
2021/01/27 05:03:51;;;;;;;6.10;3.00;;;9.50;70.20;;;;;;4994922;28;20407;-72
2021/01/27 05:06:23;;;;;;;4.10;2.83;;;9.50;70.10;;;;;;4992898;28;20030;-70
2021/01/27 05:08:55;;;;;;;;;;;9.60;70.30;;;;;;4989395;28;20026;-70
2021/01/27 05:11:24;;;;;;;3.83;2.15;;;9.50;70.70;;;;;;4994498;28;19910;-70
2021/01/27 05:13:52;;;;;;;3.10;2.90;;;9.60;70.80;;;;;;4994979;28;20019;-70
2021/01/27 05:16:25;;;;;;;4.72;2.55;;;9.40;70.30;;;;;;4994723;28;20160;-70
2021/01/27 05:18:55;;;;;;;4.45;2.20;;;9.50;71.60;;;;;;4988875;28;20117;-69
2021/01/27 05:21:41;;;;;;;3.75;2.95;;;9.50;71.00;;;;;;4994229;28;20137;-69
2021/01/27 05:24:09;;;;;;;3.78;2.70;;;9.50;71.50;;;;;;4990413;28;20365;-71
2021/01/27 05:27:00;;;;;;;3.28;2.90;;;9.60;71.10;;;;;;4992790;28;20479;-71
2021/01/27 05:30:03;;;;;;;3.10;2.80;;;9.40;71.40;;;;;;4986709;28;20042;-70
2021/01/27 05:32:48;;;;;;;2.83;2.42;;;9.30;72.30;;;;;;4994548;28;20495;-69
2021/01/27 05:35:40;;;;;;;3.78;2.75;;;9.30;71.70;;;;;;4989417;28;20102;-71
2021/01/27 05:38:31;;;;;;;5.60;2.83;;;9.40;71.80;;;;;;4981851;28;20038;-70
2021/01/27 05:41:07;;;;;;;3.97;2.50;;;9.50;72.10;;;;;;4992117;28;20039;-71
2021/01/27 05:43:36;;;;;;;3.67;2.67;;;9.40;72.40;;;;;;4980653;28;20033;-69
2021/01/27 05:46:12;;;;;;;5.63;2.88;;;9.50;71.70;;;;;;4995935;28;20534;-71
2021/01/27 05:48:45;;;;;;;2.63;2.40;;;9.50;72.20;;;;;;4983634;28;20035;-71
2021/01/27 05:51:15;;;;;;;2.60;2.40;;;9.60;72.10;;;;;;4992464;28;20361;-70
2021/01/27 05:53:42;;;;;;;4.05;2.75;;;9.70;72.10;;;;;;4993605;28;20038;-69
2021/01/27 05:56:28;;;;;;;4.18;2.35;;;9.50;72.60;;;;;;4991243;28;20480;-69
2021/01/27 05:59:00;;;;;;;2.95;2.67;;;9.50;73.00;;;;;;4986143;28;20026;-69
2021/01/27 06:01:26;;;;;;;3.00;2.70;;;9.60;72.90;;;;;;4993331;28;20476;-69
2021/01/27 06:04:07;;;;;;;3.50;2.20;;;9.60;73.10;;;;;;4994470;28;20475;-68
2021/01/27 06:06:36;;;;;;;3.30;2.95;;;9.50;73.30;;;;;;4985114;28;20040;-69
2021/01/27 06:09:05;;;;;;;4.32;2.85;;;9.50;73.00;;;;;;4982265;28;20027;-70
2021/01/27 06:11:32;;;;;;;3.15;2.85;;;9.50;72.80;;;;;;4990716;28;20536;-69
2021/01/27 06:14:11;;;;;;;7.55;4.43;;;9.40;73.60;;;;;;4985413;28;20473;-70
2021/01/27 06:16:44;;;;;;;2.75;2.53;;;9.40;73.40;;;;;;4988531;28;20495;-69
2021/01/27 06:19:20;;;;;;;5.00;2.92;;;9.30;73.90;;;;;;4995147;28;20036;-69
2021/01/27 06:22:27;;;;;;;8.23;3.35;;;9.30;74.00;;;;;;4988407;28;20057;-69
2021/01/27 06:25:12;;;;;;;3.78;2.92;;;9.40;74.20;;;;;;4985820;28;20026;-69
2021/01/27 06:28:22;;;;;;;3.67;2.25;;;9.30;74.40;;;;;;4986234;28;20023;-69
2021/01/27 06:31:33;;;;;;;4.97;2.30;;;9.60;74.00;;;;;;4980823;28;20169;-69
2021/01/27 06:34:08;;;;;;;3.17;2.28;;;9.70;74.00;;;;;;4988956;28;20105;-68
2021/01/27 06:36:48;;;;;;;2.30;2.05;;;10.10;75.20;;;;;;4988417;28;20592;-69
2021/01/27 06:39:21;;;;;;;5.20;2.67;;;10.40;75.30;;;;;;4977392;28;20054;-68
2021/01/27 06:42:24;;;;;;;6.78;2.95;;;10.50;74.20;;;;;;4986241;28;20042;-69
2021/01/27 06:44:59;;;;;;;2.92;2.00;;;10.70;74.00;;;;;;4986763;28;20022;-69
2021/01/27 06:48:00;;;;;;;6.20;2.60;;;10.70;74.20;;;;;;4985192;28;20061;-70
2021/01/27 06:50:37;;;;;;;6.60;2.58;;;10.60;73.50;;;;;;4984552;28;20026;-70
2021/01/27 06:53:27;;;;;;;10.50;3.15;;;10.90;73.90;;;;;;4992005;28;20072;-69
2021/01/27 06:56:04;;;;;;;5.53;2.80;;;10.90;73.20;;;;;;4989047;28;20030;-70
2021/01/27 06:58:56;;;;;;;6.93;2.28;;;10.70;72.90;;;;;;4989705;28;20027;-70
2021/01/27 07:02:14;;;;;;;4.10;2.40;;;10.50;73.60;;;;;;4983332;28;20060;-70
2021/01/27 07:05:11;;;;;;;2.28;2.00;;;10.40;73.70;;;;;;4940073;28;20042;-72
2021/01/27 07:07:48;;;;;;;2.92;2.10;;;10.80;75.50;;;;;;4983232;28;20065;-71
2021/01/27 07:10:51;;;;;;;3.58;1.60;;;10.90;75.50;;;;;;4991390;28;20026;-71
2021/01/27 07:13:36;;;;;;;3.25;2.53;;;11.10;75.10;;;;;;4987991;28;20034;-71
2021/01/27 07:16:43;;;;;;;4.68;2.10;;;11.10;74.40;;;;;;4992722;28;20044;-72
2021/01/27 07:19:37;;;;;;;5.28;2.30;;;11.10;74.20;;;;;;4987134;28;20072;-70
2021/01/27 07:22:19;;;;;;;2.05;1.80;;;11.10;74.20;;;;;;4990285;28;20045;-70
2021/01/27 07:25:07;;;;;;;5.38;1.90;;;11.10;73.80;;;;;;4993576;28;20114;-71
2021/01/27 07:27:40;;;;;;;4.25;2.13;;;11.20;74.60;;;;;;4986200;28;20026;-71
2021/01/27 07:30:15;;;;;;;2.28;2.08;;;11.30;74.40;;;;;;4987445;28;20031;-71
2021/01/27 07:32:53;;;;;;;1.88;1.60;;;11.30;74.70;;;;;;4991076;28;20030;-71
2021/01/27 07:35:35;;;;;;;1.92;1.23;;;11.40;74.90;;;;;;4989580;28;20030;-71
2021/01/27 07:38:25;;;;;;;2.92;1.75;;;11.50;74.50;;;;;;4988545;28;20053;-73
2021/01/27 07:40:56;;;;;;;2.00;1.65;;;11.60;74.90;;;;;;4991453;28;20030;-72
2021/01/27 07:43:31;;;;;;;2.80;1.35;;;11.50;74.90;;;;;;4991476;28;20034;-73
2021/01/27 07:46:00;;;;;;;1.10;1.10;;;11.70;74.80;;;;;;4996202;28;20158;-74
2021/01/27 07:48:50;;;;;;;1.55;1.45;;;11.70;74.20;;;;;;4994029;28;20034;-72
2021/01/27 07:51:23;;;;;;;1.65;1.30;;;11.70;74.80;;;;;;4991968;28;20027;-71
2021/01/27 07:54:02;;;;;;;2.13;2.03;;;11.90;74.50;;;;;;4993378;28;20467;-71
2021/01/27 07:56:39;;;;;;;3.63;1.45;;;11.90;74.70;;;;;;4993135;28;20088;-71
2021/01/27 07:59:06;;;;;;;1.55;1.40;;;12.00;74.50;;;;;;4990452;28;20035;-71
2021/01/27 08:01:47;;;;;;;1.65;1.55;;;11.90;74.80;;;;;;4991145;28;20077;-70
2021/01/27 08:04:21;;;;;;;1.50;1.40;;;12.00;74.20;;;;;;4992909;28;20032;-71
2021/01/27 08:06:53;;;;;;;2.97;1.52;;;11.80;74.50;;;;;;4995558;28;20030;-70
2021/01/27 08:09:29;;;;;;;1.77;1.40;;;11.70;75.10;;;;;;4986297;28;20023;-71
2021/01/27 08:12:09;;;;;;;1.75;1.48;;;11.80;74.00;;;;;;4995919;28;20053;-70
2021/01/27 08:15:10;;;;;;;1.70;1.40;;;11.70;75.00;;;;;;4991681;28;20080;-70
2021/01/27 08:18:05;;;;;;;1.50;1.40;;;11.80;74.00;;;;;;4996520;28;20030;-69
2021/01/27 08:20:41;;;;;;;2.70;1.42;;;11.90;74.00;;;;;;4985924;28;20049;-69
2021/01/27 08:23:32;;;;;;;1.75;1.65;;;11.80;73.90;;;;;;4990963;28;20117;-70
2021/01/27 08:26:02;;;;;;;1.92;1.50;;;11.70;74.70;;;;;;4993057;28;20150;-69
2021/01/27 08:28:37;;;;;;;3.90;1.50;;;11.50;74.90;;;;;;4994345;28;20112;-69
2021/01/27 08:31:10;;;;;;;2.13;1.70;;;11.50;74.70;;;;;;4987892;28;20108;-70
2021/01/27 08:33:54;;;;;;;2.20;2.10;;;11.30;75.20;;;;;;4990796;28;20381;-70
2021/01/27 08:36:30;;;;;;;2.63;1.80;;;11.20;76.10;;;;;;4989042;28;20018;-71
2021/01/27 08:38:56;;;;;;;3.47;1.88;;;11.20;75.40;;;;;;4979904;28;20480;-70
2021/01/27 08:41:44;;;;;;;3.78;2.00;;;11.10;75.90;;;;;;4992276;28;20034;-70
2021/01/27 08:44:40;;;;;;;5.22;1.92;;;10.90;76.10;;;;;;4993499;28;20041;-70
2021/01/27 08:47:20;;;;;;;7.30;2.20;;;10.60;76.00;;;;;;4989835;28;20034;-69
2021/01/27 08:49:58;;;;;;;2.28;2.17;;;10.60;75.90;;;;;;4996495;28;20022;-70
2021/01/27 08:52:37;;;;;;;5.25;2.13;;;10.60;75.00;;;;;;4996783;28;20033;-69
2021/01/27 08:55:45;;;;;;;3.17;1.80;;;10.80;76.20;;;;;;4991624;28;20033;-69
2021/01/27 08:58:20;;;;;;;1.50;1.38;;;10.80;75.90;;;;;;4992562;28;20030;-69
2021/01/27 09:00:48;;;;;;;3.30;1.73;;;11.40;79.70;;;;;;4996498;28;20038;-69
2021/01/27 09:03:42;;;;;;;4.72;1.88;;;11.60;79.80;;;;;;4991017;28;20456;-69
2021/01/27 09:06:37;;;;;;;10.07;3.20;;;12.10;80.00;;;;;;4990463;28;20034;-69
2021/01/27 09:09:27;;;;;;;11.38;2.67;;;12.60;80.20;;;;;;4989023;28;20034;-68
2021/01/27 09:11:58;;;;;;;4.40;2.20;;;13.00;79.70;;;;;;4990235;28;20463;-68
2021/01/27 09:14:26;;;;;;;4.78;2.25;;;13.30;78.60;;;;;;4995045;28;20042;-68
2021/01/27 09:16:53;;;;;;;7.10;2.75;;;13.70;77.60;;;;;;4995099;28;20023;-68
2021/01/27 09:19:23;;;;;;;12.27;2.72;;;13.80;77.10;;;;;;4992159;28;20467;-68
2021/01/27 09:22:01;;;;;;;17.83;4.10;;;14.00;76.80;;;;;;4981115;28;20177;-68
2021/01/27 09:24:43;;;;;;;12.45;2.95;;;14.10;76.40;;;;;;4989981;28;20026;-68
2021/01/27 09:27:25;;;;;;;17.35;3.47;;;14.30;76.00;;;;;;4992933;28;20361;-68
2021/01/27 09:30:07;;;;;;;21.70;4.80;;;14.40;75.50;;;;;;4990900;28;20066;-68
2021/01/27 09:32:34;;;;;;;15.95;4.35;;;14.50;75.20;;;;;;4993880;28;20035;-68
2021/01/27 09:35:27;;;;;;;14.15;4.57;;;14.60;74.80;;;;;;4993802;28;20487;-68
2021/01/27 09:38:01;;;;;;;12.43;3.78;;;14.60;73.70;;;;;;4994091;28;20077;-68
2021/01/27 09:40:33;;;;;;;16.23;4.20;;;14.70;73.50;;;;;;4991537;28;20256;-68
2021/01/27 09:43:02;;;;;;;20.48;4.85;;;14.50;73.10;;;;;;4992381;28;20543;-68
2021/01/27 09:45:31;;;;;;;13.80;4.25;;;14.60;73.00;;;;;;4993424;28;20073;-68
2021/01/27 09:48:00;;;;;;;18.58;4.97;;;14.50;72.30;;;;;;4985867;28;20066;-68
2021/01/27 09:50:28;;;;;;;37.22;8.27;;;14.60;72.10;;;;;;4992211;28;20356;-70
2021/01/27 09:53:00;;;;;;;15.93;3.65;;;14.60;72.00;;;;;;4992118;28;20109;-69
2021/01/27 09:55:27;;;;;;;12.85;3.65;;;14.60;71.00;;;;;;4996056;28;20054;-69
2021/01/27 09:57:55;;;;;;;9.80;3.50;;;14.60;70.80;;;;;;4993010;28;20031;-68
2021/01/27 10:00:30;;;;;;;13.27;3.35;;;14.60;69.60;;;;;;4994237;28;20484;-69
2021/01/27 10:03:10;;;;;;;14.52;3.05;;;14.60;69.80;;;;;;4990962;28;20030;-69
2021/01/27 10:05:41;;;;;;;14.05;4.03;;;14.70;70.10;;;;;;4984317;28;20018;-69
2021/01/27 10:08:22;;;;;;;12.82;3.55;;;14.60;69.00;;;;;;4993132;28;20121;-69
2021/01/27 10:11:01;;;;;;;8.95;3.17;;;14.60;68.70;;;;;;4994693;28;20026;-68
2021/01/27 10:13:33;;;;;;;18.65;4.05;;;14.60;68.60;;;;;;4991398;28;20109;-69
2021/01/27 10:16:09;;;;;;;25.53;5.63;;;14.70;69.30;;;;;;4993149;28;20033;-69
2021/01/27 10:18:38;;;;;;;22.05;4.50;;;14.60;68.50;;;;;;4994689;28;20092;-68
2021/01/27 10:21:16;;;;;;;19.23;3.83;;;14.60;69.20;;;;;;4994162;28;20030;-68
2021/01/27 10:23:45;;;;;;;21.73;4.38;;;14.70;69.30;;;;;;4993204;28;20071;-68
2021/01/27 10:26:23;;;;;;;21.17;4.35;;;14.60;69.10;;;;;;4993250;28;20018;-68
2021/01/27 10:29:29;;;;;;;25.38;5.38;;;14.60;69.70;;;;;;4994361;28;20023;-68
2021/01/27 10:31:57;;;;;;;28.95;6.13;;;14.60;69.70;;;;;;4990051;28;20041;-69
2021/01/27 10:34:47;;;;;;;23.10;4.40;;;14.60;69.20;;;;;;4993523;28;20023;-69
2021/01/27 10:37:37;;;;;;;32.33;8.05;;;14.60;69.40;;;;;;4990547;28;20053;-68
2021/01/27 10:40:31;;;;;;;25.30;4.40;;;14.50;70.00;;;;;;4989572;28;20025;-68
2021/01/27 10:43:22;;;;;;;26.27;5.65;;;14.40;70.40;;;;;;4992485;28;20345;-69
2021/01/27 10:45:49;;;;;;;38.13;7.47;;;14.50;70.30;;;;;;4990547;28;20038;-68
2021/01/27 10:48:31;;;;;;;35.65;5.80;;;14.40;71.20;;;;;;4994620;28;20101;-69
2021/01/27 10:51:05;;;;;;;37.78;6.88;;;14.30;71.10;;;;;;4993038;28;20062;-69
2021/01/27 10:53:40;;;;;;;25.02;5.75;;;14.30;71.00;;;;;;4994373;28;20113;-69
2021/01/27 10:56:08;;;;;;;25.25;5.65;;;14.30;71.10;;;;;;4983287;28;20019;-71
2021/01/27 10:58:34;;;;;;;23.85;4.88;;;14.40;71.00;;;;;;4990076;28;20030;-69
2021/01/27 11:01:01;;;;;;;23.75;5.25;;;14.40;70.80;;;;;;4992804;28;20432;-70
2021/01/27 11:03:27;;;;;;;44.80;7.78;;;14.40;70.70;;;;;;4994523;28;20034;-70
2021/01/27 11:05:54;;;;;;;25.60;5.07;;;14.40;70.80;;;;;;4994446;28;20033;-69
2021/01/27 11:08:31;;;;;;;24.58;6.18;;;14.40;70.70;;;;;;4990915;28;20026;-69
2021/01/27 11:11:00;;;;;;;25.27;5.65;;;14.40;70.80;;;;;;4991419;28;20353;-68
2021/01/27 11:13:27;;;;;;;27.85;6.30;;;14.40;71.00;;;;;;4991094;28;20026;-68
2021/01/27 11:15:54;;;;;;;27.77;6.57;;;14.30;70.90;;;;;;4991015;28;20026;-69
2021/01/27 11:18:21;;;;;;;29.33;6.28;;;14.30;71.20;;;;;;4981200;28;20109;-68
2021/01/27 11:20:48;;;;;;;32.13;6.45;;;14.20;71.10;;;;;;4991107;28;20053;-68
2021/01/27 11:23:14;;;;;;;33.58;6.45;;;14.30;70.80;;;;;;4989912;28;20532;-68
2021/01/27 11:25:41;;;;;;;29.65;6.30;;;14.30;70.60;;;;;;4993492;28;20081;-68
2021/01/27 11:28:07;;;;;;;38.63;6.13;;;14.30;70.50;;;;;;4994148;28;20117;-68
2021/01/27 11:30:34;;;;;;;28.23;7.50;;;14.20;70.50;;;;;;4993489;28;20313;-69
2021/01/27 11:33:00;;;;;;;31.35;6.07;;;14.20;70.70;;;;;;4992739;28;20475;-68
2021/01/27 11:35:27;;;;;;;34.58;6.40;;;14.10;70.90;;;;;;4996852;28;20026;-68
2021/01/27 11:37:54;;;;;;;39.13;7.63;;;14.20;70.80;;;;;;4998562;28;20026;-68
2021/01/27 11:40:25;;;;;;;34.80;8.75;;;14.20;70.70;;;;;;4994694;28;20108;-68
2021/01/27 11:42:51;;;;;;;29.52;6.22;;;14.10;71.00;;;;;;4995846;28;20049;-68
2021/01/27 11:45:19;;;;;;;38.65;6.00;;;14.20;71.00;;;;;;4995894;28;20026;-68
2021/01/27 11:47:46;;;;;;;26.13;7.70;;;14.10;70.90;;;;;;4997885;28;20044;-67
2021/01/27 11:50:14;;;;;;;36.72;7.30;;;14.20;70.70;;;;;;4986605;28;20420;-68
2021/01/27 11:52:40;;;;;;;29.95;6.07;;;14.20;70.60;;;;;;4994568;28;20026;-68
2021/01/27 11:55:07;;;;;;;40.55;5.50;;;14.20;70.60;;;;;;4998375;28;20038;-67
2021/01/27 11:57:34;;;;;;;28.95;5.90;;;14.10;70.80;;;;;;4996925;28;20030;-68
2021/01/27 12:00:00;;;;;;;41.10;8.52;;;14.00;70.80;;;;;;4995468;28;20030;-68
2021/01/27 12:02:27;;;;;;;47.40;8.27;;;14.00;70.90;;;;;;4997749;28;20057;-68
2021/01/27 12:04:53;;;;;;;31.52;6.00;;;14.20;70.70;;;;;;4996143;28;20487;-68
2021/01/27 12:07:19;;;;;;;33.58;8.85;;;14.10;70.50;;;;;;4998206;28;20669;-67
2021/01/27 12:09:46;;;;;;;38.35;7.18;;;14.20;69.90;;;;;;4997661;28;20032;-67
2021/01/27 12:12:12;;;;;;;40.65;8.27;;;14.10;70.10;;;;;;4995186;28;20034;-67
2021/01/27 12:14:38;;;;;;;34.90;7.63;;;14.10;70.00;;;;;;4994777;28;20034;-67
2021/01/27 12:17:05;;;;;;;47.35;7.88;;;14.10;69.40;;;;;;4995783;28;20030;-67
2021/01/27 12:19:31;;;;;;;37.20;8.80;;;14.00;69.80;;;;;;4996647;28;20488;-67
2021/01/27 12:21:58;;;;;;;32.70;7.50;;;14.10;70.00;;;;;;4997769;28;20031;-67
2021/01/27 12:24:25;;;;;;;36.83;7.72;;;14.10;70.30;;;;;;4994661;28;20027;-68
2021/01/27 12:26:52;;;;;;;46.67;8.35;;;14.20;69.90;;;;;;4997317;28;20041;-67
2021/01/27 12:29:21;;;;;;;37.60;8.18;;;14.10;70.10;;;;;;4994504;28;20031;-67
2021/01/27 12:31:48;;;;;;;57.17;9.95;;;14.10;69.90;;;;;;4996462;28;20038;-67
2021/01/27 12:34:15;;;;;;;34.70;9.13;;;14.10;69.70;;;;;;4995116;28;20018;-67
2021/01/27 12:36:43;;;;;;;44.17;9.45;;;14.20;69.70;;;;;;4997403;28;20022;-68
2021/01/27 12:39:10;;;;;;;32.95;7.28;;;14.00;69.60;;;;;;4985636;28;20137;-69
2021/01/27 12:41:37;;;;;;;36.28;7.95;;;14.00;70.20;;;;;;4996117;28;20093;-68
2021/01/27 12:44:04;;;;;;;51.17;11.40;;;14.00;69.70;;;;;;4990021;28;20033;-68
2021/01/27 12:46:30;;;;;;;42.42;8.60;;;14.10;69.60;;;;;;4995709;28;20027;-69
2021/01/27 12:48:56;;;;;;;42.28;9.80;;;14.10;69.60;;;;;;4994618;28;20372;-69
2021/01/27 12:51:23;;;;;;;43.63;9.13;;;14.10;69.50;;;;;;4995794;28;20089;-67
2021/01/27 12:53:49;;;;;;;34.55;8.82;;;14.10;68.60;;;;;;4997021;28;20484;-67
2021/01/27 12:56:16;;;;;;;33.08;8.13;;;14.10;68.40;;;;;;4996618;28;20033;-67
2021/01/27 12:58:43;;;;;;;33.90;9.52;;;14.10;67.80;;;;;;4996310;28;20034;-67
2021/01/27 13:01:10;;;;;;;43.28;10.15;;;14.10;68.20;;;;;;4995483;28;20404;-67
2021/01/27 13:03:36;;;;;;;36.85;8.60;;;14.00;68.40;;;;;;4994326;28;20038;-67
2021/01/27 13:06:02;;;;;;;35.63;7.63;;;14.10;68.90;;;;;;4996218;28;20053;-71
2021/01/27 13:08:29;;;;;;;30.02;7.15;;;14.00;69.00;;;;;;4987961;28;20050;-68
2021/01/27 13:10:56;;;;;;;46.80;8.73;;;13.90;69.00;;;;;;4992041;28;20027;-68
2021/01/27 13:13:22;;;;;;;44.85;8.82;;;14.00;68.80;;;;;;4995448;28;20038;-67
2021/01/27 13:15:48;;;;;;;36.33;7.00;;;14.00;68.50;;;;;;4994626;28;20359;-68
2021/01/27 13:18:15;;;;;;;36.00;8.75;;;14.00;68.30;;;;;;4996139;28;20023;-68
2021/01/27 13:20:41;;;;;;;33.50;9.98;;;14.00;68.90;;;;;;4994934;28;20030;-68
2021/01/27 13:23:08;;;;;;;43.90;9.18;;;14.00;69.00;;;;;;4993878;28;20523;-67
2021/01/27 13:25:34;;;;;;;36.65;9.85;;;13.90;69.10;;;;;;4994786;28;20058;-68